sensor_id;sensor_type;location;lat;lon;timestamp;temperature;humidity
18299;DHT22;9275;48.690;9.686;2024-02-16T00:02:33;1.70;99.90
18299;DHT22;9275;48.690;9.686;2024-02-16T00:07:37;1.60;99.90
18299;DHT22;9275;48.690;9.686;2024-02-16T00:12:43;1.60;99.90
18299;DHT22;9275;48.690;9.686;2024-02-16T00:17:47;1.60;99.90
18299;DHT22;9275;48.690;9.686;2024-02-16T00:22:52;1.70;99.90
18299;DHT22;9275;48.690;9.686;2024-02-16T00:27:59;1.70;99.90
18299;DHT22;9275;48.690;9.686;2024-02-16T00:33:04;1.70;99.90
18299;DHT22;9275;48.690;9.686;2024-02-16T00:38:10;1.70;99.90
18299;DHT22;9275;48.690;9.686;2024-02-16T00:43:17;1.70;99.90
18299;DHT22;9275;48.690;9.686;2024-02-16T00:48:21;1.70;99.90
18299;DHT22;9275;48.690;9.686;2024-02-16T00:53:27;1.70;99.90
18299;DHT22;9275;48.690;9.686;2024-02-16T00:58:33;1.80;99.90
18299;DHT22;9275;48.690;9.686;2024-02-16T01:03:37;1.90;99.90
18299;DHT22;9275;48.690;9.686;2024-02-16T01:08:42;1.90;99.90
18299;DHT22;9275;48.690;9.686;2024-02-16T01:13:48;1.90;99.90
18299;DHT22;9275;48.690;9.686;2024-02-16T01:18:52;1.90;99.90
18299;DHT22;9275;48.690;9.686;2024-02-16T01:23:57;2.00;99.90
18299;DHT22;9275;48.690;9.686;2024-02-16T01:29:04;1.90;99.90
18299;DHT22;9275;48.690;9.686;2024-02-16T01:34:09;1.80;99.90
18299;DHT22;9275;48.690;9.686;2024-02-16T01:39:14;1.90;99.90
18299;DHT22;9275;48.690;9.686;2024-02-16T01:44:20;1.80;99.90
18299;DHT22;9275;48.690;9.686;2024-02-16T01:49:25;1.80;99.90
18299;DHT22;9275;48.690;9.686;2024-02-16T01:54:29;1.70;99.90
18299;DHT22;9275;48.690;9.686;2024-02-16T01:59:36;1.80;99.90
18299;DHT22;9275;48.690;9.686;2024-02-16T02:04:43;1.70;99.90
18299;DHT22;9275;48.690;9.686;2024-02-16T02:09:48;1.70;99.90
18299;DHT22;9275;48.690;9.686;2024-02-16T02:14:54;1.60;99.90
18299;DHT22;9275;48.690;9.686;2024-02-16T02:19:59;1.70;99.90
18299;DHT22;9275;48.690;9.686;2024-02-16T02:25:06;1.70;99.90
18299;DHT22;9275;48.690;9.686;2024-02-16T02:30:14;1.80;99.90
18299;DHT22;9275;48.690;9.686;2024-02-16T02:35:19;1.90;99.90
18299;DHT22;9275;48.690;9.686;2024-02-16T02:40:26;1.80;99.90
18299;DHT22;9275;48.690;9.686;2024-02-16T02:45:31;1.80;99.90
18299;DHT22;9275;48.690;9.686;2024-02-16T02:50:35;1.90;99.90
18299;DHT22;9275;48.690;9.686;2024-02-16T02:55:41;1.80;99.90
18299;DHT22;9275;48.690;9.686;2024-02-16T03:00:46;1.90;99.90
18299;DHT22;9275;48.690;9.686;2024-02-16T03:05:51;1.80;99.90
18299;DHT22;9275;48.690;9.686;2024-02-16T03:10:56;2.00;99.90
18299;DHT22;9275;48.690;9.686;2024-02-16T03:16:04;1.90;99.90
18299;DHT22;9275;48.690;9.686;2024-02-16T03:21:13;1.80;99.90
18299;DHT22;9275;48.690;9.686;2024-02-16T03:26:21;1.90;99.90
18299;DHT22;9275;48.690;9.686;2024-02-16T03:31:26;1.90;99.90
18299;DHT22;9275;48.690;9.686;2024-02-16T03:36:31;2.00;99.90
18299;DHT22;9275;48.690;9.686;2024-02-16T03:41:37;2.00;99.90
18299;DHT22;9275;48.690;9.686;2024-02-16T03:46:42;1.90;99.90
18299;DHT22;9275;48.690;9.686;2024-02-16T03:51:46;1.80;99.90
18299;DHT22;9275;48.690;9.686;2024-02-16T03:56:54;1.90;99.90
18299;DHT22;9275;48.690;9.686;2024-02-16T04:01:59;1.90;99.90
18299;DHT22;9275;48.690;9.686;2024-02-16T04:07:04;2.00;99.90
18299;DHT22;9275;48.690;9.686;2024-02-16T04:12:11;2.10;99.90
18299;DHT22;9275;48.690;9.686;2024-02-16T04:17:15;2.00;99.90
18299;DHT22;9275;48.690;9.686;2024-02-16T04:22:19;2.00;99.90
18299;DHT22;9275;48.690;9.686;2024-02-16T04:27:25;2.20;99.90
18299;DHT22;9275;48.690;9.686;2024-02-16T04:32:30;2.20;99.90
18299;DHT22;9275;48.690;9.686;2024-02-16T04:37:35;2.20;99.90
18299;DHT22;9275;48.690;9.686;2024-02-16T04:42:41;2.20;99.90
18299;DHT22;9275;48.690;9.686;2024-02-16T04:47:46;2.20;99.90
18299;DHT22;9275;48.690;9.686;2024-02-16T04:52:51;2.20;99.90
18299;DHT22;9275;48.690;9.686;2024-02-16T04:57:57;2.10;99.90
18299;DHT22;9275;48.690;9.686;2024-02-16T05:03:02;2.00;99.90
18299;DHT22;9275;48.690;9.686;2024-02-16T05:08:06;2.00;99.90
18299;DHT22;9275;48.690;9.686;2024-02-16T05:13:12;2.10;99.90
18299;DHT22;9275;48.690;9.686;2024-02-16T05:18:18;2.10;99.90
18299;DHT22;9275;48.690;9.686;2024-02-16T05:23:25;2.00;99.90
18299;DHT22;9275;48.690;9.686;2024-02-16T05:28:31;2.00;99.90
18299;DHT22;9275;48.690;9.686;2024-02-16T05:33:36;2.10;99.90
18299;DHT22;9275;48.690;9.686;2024-02-16T05:38:41;2.00;99.90
18299;DHT22;9275;48.690;9.686;2024-02-16T05:43:48;2.00;99.90
18299;DHT22;9275;48.690;9.686;2024-02-16T05:48:52;2.00;99.90
18299;DHT22;9275;48.690;9.686;2024-02-16T05:53:57;2.10;99.90
18299;DHT22;9275;48.690;9.686;2024-02-16T05:59:03;2.10;99.90
18299;DHT22;9275;48.690;9.686;2024-02-16T06:04:08;2.20;99.90
18299;DHT22;9275;48.690;9.686;2024-02-16T06:09:13;2.20;99.90
18299;DHT22;9275;48.690;9.686;2024-02-16T06:14:19;2.10;99.90
18299;DHT22;9275;48.690;9.686;2024-02-16T06:19:25;2.10;99.90
18299;DHT22;9275;48.690;9.686;2024-02-16T06:24:30;2.10;99.90
18299;DHT22;9275;48.690;9.686;2024-02-16T06:29:36;2.20;99.90
18299;DHT22;9275;48.690;9.686;2024-02-16T06:34:41;2.30;99.90
18299;DHT22;9275;48.690;9.686;2024-02-16T06:39:45;2.30;99.90
18299;DHT22;9275;48.690;9.686;2024-02-16T06:44:51;2.40;99.90
18299;DHT22;9275;48.690;9.686;2024-02-16T06:49:56;2.40;99.90
18299;DHT22;9275;48.690;9.686;2024-02-16T06:55:00;2.40;99.90
18299;DHT22;9275;48.690;9.686;2024-02-16T07:00:09;2.50;99.90
18299;DHT22;9275;48.690;9.686;2024-02-16T07:05:14;2.40;99.90
18299;DHT22;9275;48.690;9.686;2024-02-16T07:10:18;2.50;99.90
18299;DHT22;9275;48.690;9.686;2024-02-16T07:15:24;2.50;99.90
18299;DHT22;9275;48.690;9.686;2024-02-16T07:20:29;2.50;99.90
18299;DHT22;9275;48.690;9.686;2024-02-16T07:25:34;2.50;99.90
18299;DHT22;9275;48.690;9.686;2024-02-16T07:30:40;2.40;99.90
18299;DHT22;9275;48.690;9.686;2024-02-16T07:35:45;2.60;99.90
18299;DHT22;9275;48.690;9.686;2024-02-16T07:40:50;2.70;99.90
18299;DHT22;9275;48.690;9.686;2024-02-16T07:45:56;2.80;99.90
18299;DHT22;9275;48.690;9.686;2024-02-16T07:51:00;2.70;99.90
18299;DHT22;9275;48.690;9.686;2024-02-16T07:56:06;2.70;99.90
18299;DHT22;9275;48.690;9.686;2024-02-16T08:01:13;2.80;99.90
18299;DHT22;9275;48.690;9.686;2024-02-16T08:06:18;2.80;99.90
18299;DHT22;9275;48.690;9.686;2024-02-16T08:11:24;2.90;99.90
18299;DHT22;9275;48.690;9.686;2024-02-16T08:16:30;3.00;99.90
18299;DHT22;9275;48.690;9.686;2024-02-16T08:21:34;3.00;99.90
18299;DHT22;9275;48.690;9.686;2024-02-16T08:26:39;3.10;99.90
18299;DHT22;9275;48.690;9.686;2024-02-16T08:31:45;3.20;99.90
18299;DHT22;9275;48.690;9.686;2024-02-16T08:36:52;3.20;99.90
18299;DHT22;9275;48.690;9.686;2024-02-16T08:41:56;3.10;99.90
18299;DHT22;9275;48.690;9.686;2024-02-16T08:47:02;3.10;99.90
18299;DHT22;9275;48.690;9.686;2024-02-16T08:52:07;3.10;99.90
18299;DHT22;9275;48.690;9.686;2024-02-16T08:57:11;3.30;99.90
18299;DHT22;9275;48.690;9.686;2024-02-16T09:02:18;3.40;99.90
18299;DHT22;9275;48.690;9.686;2024-02-16T09:07:22;3.60;99.90
18299;DHT22;9275;48.690;9.686;2024-02-16T09:12:28;3.70;99.90
18299;DHT22;9275;48.690;9.686;2024-02-16T09:17:35;3.80;99.90
18299;DHT22;9275;48.690;9.686;2024-02-16T09:22:40;3.90;99.90
18299;DHT22;9275;48.690;9.686;2024-02-16T09:27:49;3.90;99.90
18299;DHT22;9275;48.690;9.686;2024-02-16T09:32:55;4.00;99.90
18299;DHT22;9275;48.690;9.686;2024-02-16T09:38:00;4.10;99.90
18299;DHT22;9275;48.690;9.686;2024-02-16T09:43:04;4.20;99.90
18299;DHT22;9275;48.690;9.686;2024-02-16T09:48:10;4.30;99.90
18299;DHT22;9275;48.690;9.686;2024-02-16T09:53:16;4.40;99.90
18299;DHT22;9275;48.690;9.686;2024-02-16T09:58:21;4.30;99.90
18299;DHT22;9275;48.690;9.686;2024-02-16T10:03:28;4.40;99.90
18299;DHT22;9275;48.690;9.686;2024-02-16T10:08:33;4.40;99.90
18299;DHT22;9275;48.690;9.686;2024-02-16T10:13:38;4.50;99.90
18299;DHT22;9275;48.690;9.686;2024-02-16T10:18:44;4.50;99.90
18299;DHT22;9275;48.690;9.686;2024-02-16T10:23:59;4.40;99.90
18299;DHT22;9275;48.690;9.686;2024-02-16T10:29:06;4.50;99.90
18299;DHT22;9275;48.690;9.686;2024-02-16T10:34:12;4.50;99.90
18299;DHT22;9275;48.690;9.686;2024-02-16T10:39:19;4.60;99.90
18299;DHT22;9275;48.690;9.686;2024-02-16T10:44:25;4.70;99.90
18299;DHT22;9275;48.690;9.686;2024-02-16T10:49:35;4.70;99.90
18299;DHT22;9275;48.690;9.686;2024-02-16T10:54:42;4.70;99.90
18299;DHT22;9275;48.690;9.686;2024-02-16T10:59:46;4.60;99.90
18299;DHT22;9275;48.690;9.686;2024-02-16T11:04:56;4.70;99.90
18299;DHT22;9275;48.690;9.686;2024-02-16T11:10:00;4.70;99.90
18299;DHT22;9275;48.690;9.686;2024-02-16T11:15:08;4.60;99.90
18299;DHT22;9275;48.690;9.686;2024-02-16T11:20:14;4.30;99.90
18299;DHT22;9275;48.690;9.686;2024-02-16T11:25:19;4.20;99.90
18299;DHT22;9275;48.690;9.686;2024-02-16T11:30:24;4.10;99.90
18299;DHT22;9275;48.690;9.686;2024-02-16T11:35:31;4.10;99.90
18299;DHT22;9275;48.690;9.686;2024-02-16T11:40:35;4.00;99.90
18299;DHT22;9275;48.690;9.686;2024-02-16T11:45:40;3.90;99.90
18299;DHT22;9275;48.690;9.686;2024-02-16T11:50:46;3.90;99.90
18299;DHT22;9275;48.690;9.686;2024-02-16T11:55:51;3.90;99.90
18299;DHT22;9275;48.690;9.686;2024-02-16T12:00:55;3.90;99.90
18299;DHT22;9275;48.690;9.686;2024-02-16T12:06:07;3.80;99.90
18299;DHT22;9275;48.690;9.686;2024-02-16T12:11:12;3.80;99.90
18299;DHT22;9275;48.690;9.686;2024-02-16T12:16:19;3.90;99.90
18299;DHT22;9275;48.690;9.686;2024-02-16T12:21:25;3.90;99.90
18299;DHT22;9275;48.690;9.686;2024-02-16T12:26:30;3.90;99.90
18299;DHT22;9275;48.690;9.686;2024-02-16T12:31:34;3.90;99.90
18299;DHT22;9275;48.690;9.686;2024-02-16T12:36:42;3.80;99.90
18299;DHT22;9275;48.690;9.686;2024-02-16T12:41:52;3.80;99.90
18299;DHT22;9275;48.690;9.686;2024-02-16T12:46:56;3.80;99.90
18299;DHT22;9275;48.690;9.686;2024-02-16T12:52:03;3.80;99.90
18299;DHT22;9275;48.690;9.686;2024-02-16T12:57:12;3.90;99.90
18299;DHT22;9275;48.690;9.686;2024-02-16T13:02:17;4.00;99.90
18299;DHT22;9275;48.690;9.686;2024-02-16T13:07:24;4.00;99.90
18299;DHT22;9275;48.690;9.686;2024-02-16T13:12:28;4.20;99.90
18299;DHT22;9275;48.690;9.686;2024-02-16T13:17:34;4.30;99.90
18299;DHT22;9275;48.690;9.686;2024-02-16T13:22:40;4.10;99.90
18299;DHT22;9275;48.690;9.686;2024-02-16T13:27:45;4.00;99.90
18299;DHT22;9275;48.690;9.686;2024-02-16T13:32:50;4.00;99.90
18299;DHT22;9275;48.690;9.686;2024-02-16T13:37:56;4.10;99.90
18299;DHT22;9275;48.690;9.686;2024-02-16T13:43:00;4.10;99.90
18299;DHT22;9275;48.690;9.686;2024-02-16T13:48:09;4.10;99.90
18299;DHT22;9275;48.690;9.686;2024-02-16T13:53:16;4.10;99.90
18299;DHT22;9275;48.690;9.686;2024-02-16T13:58:23;4.10;99.90
18299;DHT22;9275;48.690;9.686;2024-02-16T14:03:28;4.10;99.90
18299;DHT22;9275;48.690;9.686;2024-02-16T14:08:34;4.10;99.90
18299;DHT22;9275;48.690;9.686;2024-02-16T14:13:39;4.10;99.90
18299;DHT22;9275;48.690;9.686;2024-02-16T14:18:44;3.90;99.90
18299;DHT22;9275;48.690;9.686;2024-02-16T14:23:50;3.90;99.90
18299;DHT22;9275;48.690;9.686;2024-02-16T14:28:54;3.80;99.90
18299;DHT22;9275;48.690;9.686;2024-02-16T14:33:59;3.80;99.90
18299;DHT22;9275;48.690;9.686;2024-02-16T14:39:05;3.80;99.90
18299;DHT22;9275;48.690;9.686;2024-02-16T14:44:11;3.80;99.90
18299;DHT22;9275;48.690;9.686;2024-02-16T14:49:16;3.90;99.90
18299;DHT22;9275;48.690;9.686;2024-02-16T14:54:26;3.90;99.90
18299;DHT22;9275;48.690;9.686;2024-02-16T14:59:31;3.90;99.90
18299;DHT22;9275;48.690;9.686;2024-02-16T15:04:35;3.90;99.90
18299;DHT22;9275;48.690;9.686;2024-02-16T15:09:42;3.90;99.90
18299;DHT22;9275;48.690;9.686;2024-02-16T15:14:47;3.90;99.90
18299;DHT22;9275;48.690;9.686;2024-02-16T15:19:53;3.80;99.90
18299;DHT22;9275;48.690;9.686;2024-02-16T15:24:59;3.80;99.90
18299;DHT22;9275;48.690;9.686;2024-02-16T15:30:05;3.80;99.90
18299;DHT22;9275;48.690;9.686;2024-02-16T15:35:10;3.80;99.90
18299;DHT22;9275;48.690;9.686;2024-02-16T15:40:16;3.80;99.90
18299;DHT22;9275;48.690;9.686;2024-02-16T15:45:21;3.70;99.90
18299;DHT22;9275;48.690;9.686;2024-02-16T15:50:25;3.70;99.90
18299;DHT22;9275;48.690;9.686;2024-02-16T15:55:31;3.70;99.90
18299;DHT22;9275;48.690;9.686;2024-02-16T16:00:36;3.70;99.90
18299;DHT22;9275;48.690;9.686;2024-02-16T16:05:41;3.70;99.90
18299;DHT22;9275;48.690;9.686;2024-02-16T16:10:47;3.70;99.90
18299;DHT22;9275;48.690;9.686;2024-02-16T16:15:52;3.60;99.90
18299;DHT22;9275;48.690;9.686;2024-02-16T16:20:56;3.60;99.90
18299;DHT22;9275;48.690;9.686;2024-02-16T16:26:02;3.60;99.90
18299;DHT22;9275;48.690;9.686;2024-02-16T16:31:07;3.60;99.90
18299;DHT22;9275;48.690;9.686;2024-02-16T16:36:14;3.40;99.90
18299;DHT22;9275;48.690;9.686;2024-02-16T16:41:20;3.50;99.90
18299;DHT22;9275;48.690;9.686;2024-02-16T16:46:25;3.40;99.90
18299;DHT22;9275;48.690;9.686;2024-02-16T16:51:30;3.30;99.90
18299;DHT22;9275;48.690;9.686;2024-02-16T16:56:36;3.30;99.90
18299;DHT22;9275;48.690;9.686;2024-02-16T17:01:41;3.20;99.90
18299;DHT22;9275;48.690;9.686;2024-02-16T17:06:45;3.20;99.90
18299;DHT22;9275;48.690;9.686;2024-02-16T17:11:51;3.20;99.90
18299;DHT22;9275;48.690;9.686;2024-02-16T17:16:57;3.10;99.90
18299;DHT22;9275;48.690;9.686;2024-02-16T17:22:05;3.10;99.90
18299;DHT22;9275;48.690;9.686;2024-02-16T17:27:11;3.10;99.90
18299;DHT22;9275;48.690;9.686;2024-02-16T17:32:15;3.10;99.90
18299;DHT22;9275;48.690;9.686;2024-02-16T17:37:20;3.10;99.90
18299;DHT22;9275;48.690;9.686;2024-02-16T17:42:27;3.10;99.90
18299;DHT22;9275;48.690;9.686;2024-02-16T17:47:31;3.10;99.90
18299;DHT22;9275;48.690;9.686;2024-02-16T17:52:36;3.10;99.90
18299;DHT22;9275;48.690;9.686;2024-02-16T17:57:41;3.10;99.90
18299;DHT22;9275;48.690;9.686;2024-02-16T18:02:46;3.10;99.90
18299;DHT22;9275;48.690;9.686;2024-02-16T18:07:51;3.10;99.90
18299;DHT22;9275;48.690;9.686;2024-02-16T18:12:57;3.00;99.90
18299;DHT22;9275;48.690;9.686;2024-02-16T18:18:03;3.00;99.90
18299;DHT22;9275;48.690;9.686;2024-02-16T18:23:08;3.00;99.90
18299;DHT22;9275;48.690;9.686;2024-02-16T18:28:14;3.00;99.90
18299;DHT22;9275;48.690;9.686;2024-02-16T18:33:27;2.90;99.90
18299;DHT22;9275;48.690;9.686;2024-02-16T18:38:33;3.00;99.90
18299;DHT22;9275;48.690;9.686;2024-02-16T18:43:40;2.90;99.90
18299;DHT22;9275;48.690;9.686;2024-02-16T18:48:45;3.00;99.90
18299;DHT22;9275;48.690;9.686;2024-02-16T18:53:49;2.90;99.90
18299;DHT22;9275;48.690;9.686;2024-02-16T18:58:56;2.80;99.90
18299;DHT22;9275;48.690;9.686;2024-02-16T19:04:01;2.80;99.90
18299;DHT22;9275;48.690;9.686;2024-02-16T19:09:06;2.80;99.90
18299;DHT22;9275;48.690;9.686;2024-02-16T19:14:13;2.90;99.90
18299;DHT22;9275;48.690;9.686;2024-02-16T19:19:18;2.90;99.90
18299;DHT22;9275;48.690;9.686;2024-02-16T19:24:22;2.80;99.90
18299;DHT22;9275;48.690;9.686;2024-02-16T19:29:42;2.80;99.90
18299;DHT22;9275;48.690;9.686;2024-02-16T19:34:47;2.70;99.90
18299;DHT22;9275;48.690;9.686;2024-02-16T19:39:52;2.60;99.90
18299;DHT22;9275;48.690;9.686;2024-02-16T19:44:58;2.60;99.90
18299;DHT22;9275;48.690;9.686;2024-02-16T19:50:03;2.60;99.90
18299;DHT22;9275;48.690;9.686;2024-02-16T19:55:13;2.50;99.90
18299;DHT22;9275;48.690;9.686;2024-02-16T20:00:20;2.40;99.90
18299;DHT22;9275;48.690;9.686;2024-02-16T20:05:25;2.40;99.90
18299;DHT22;9275;48.690;9.686;2024-02-16T20:10:29;2.40;99.90
18299;DHT22;9275;48.690;9.686;2024-02-16T20:15:36;2.30;99.90
18299;DHT22;9275;48.690;9.686;2024-02-16T20:20:41;2.40;99.90
18299;DHT22;9275;48.690;9.686;2024-02-16T20:25:46;2.40;99.90
18299;DHT22;9275;48.690;9.686;2024-02-16T20:30:52;2.50;99.90
18299;DHT22;9275;48.690;9.686;2024-02-16T20:35:56;2.50;99.90
18299;DHT22;9275;48.690;9.686;2024-02-16T20:41:01;2.50;99.90
18299;DHT22;9275;48.690;9.686;2024-02-16T20:46:09;2.50;99.90
18299;DHT22;9275;48.690;9.686;2024-02-16T20:51:13;2.40;99.90
18299;DHT22;9275;48.690;9.686;2024-02-16T20:56:17;2.40;99.90
18299;DHT22;9275;48.690;9.686;2024-02-16T21:01:24;2.40;99.90
18299;DHT22;9275;48.690;9.686;2024-02-16T21:06:28;2.40;99.90
18299;DHT22;9275;48.690;9.686;2024-02-16T21:11:33;2.30;99.90
18299;DHT22;9275;48.690;9.686;2024-02-16T21:16:41;2.30;99.90
18299;DHT22;9275;48.690;9.686;2024-02-16T21:21:49;2.30;99.90
18299;DHT22;9275;48.690;9.686;2024-02-16T21:26:53;2.40;99.90
18299;DHT22;9275;48.690;9.686;2024-02-16T21:32:01;2.40;99.90
18299;DHT22;9275;48.690;9.686;2024-02-16T21:37:06;2.30;99.90
18299;DHT22;9275;48.690;9.686;2024-02-16T21:42:11;2.30;99.90
18299;DHT22;9275;48.690;9.686;2024-02-16T21:47:18;2.30;99.90
18299;DHT22;9275;48.690;9.686;2024-02-16T21:52:23;2.30;99.90
18299;DHT22;9275;48.690;9.686;2024-02-16T21:57:27;2.30;99.90
18299;DHT22;9275;48.690;9.686;2024-02-16T22:02:33;2.30;99.90
18299;DHT22;9275;48.690;9.686;2024-02-16T22:07:38;2.30;99.90
18299;DHT22;9275;48.690;9.686;2024-02-16T22:12:42;2.30;99.90
18299;DHT22;9275;48.690;9.686;2024-02-16T22:17:48;2.30;99.90
18299;DHT22;9275;48.690;9.686;2024-02-16T22:22:53;2.30;99.90
18299;DHT22;9275;48.690;9.686;2024-02-16T22:27:58;2.20;99.90
18299;DHT22;9275;48.690;9.686;2024-02-16T22:33:04;2.20;99.90
18299;DHT22;9275;48.690;9.686;2024-02-16T22:38:09;2.30;99.90
18299;DHT22;9275;48.690;9.686;2024-02-16T22:43:14;2.20;99.90
18299;DHT22;9275;48.690;9.686;2024-02-16T22:48:21;2.20;99.90
18299;DHT22;9275;48.690;9.686;2024-02-16T22:53:26;2.20;99.90
18299;DHT22;9275;48.690;9.686;2024-02-16T22:58:31;2.20;99.90
18299;DHT22;9275;48.690;9.686;2024-02-16T23:03:37;2.10;99.90
18299;DHT22;9275;48.690;9.686;2024-02-16T23:08:43;2.10;99.90
18299;DHT22;9275;48.690;9.686;2024-02-16T23:13:48;2.10;99.90
18299;DHT22;9275;48.690;9.686;2024-02-16T23:18:54;2.00;99.90
18299;DHT22;9275;48.690;9.686;2024-02-16T23:23:59;2.10;99.90
18299;DHT22;9275;48.690;9.686;2024-02-16T23:29:04;2.10;99.90
18299;DHT22;9275;48.690;9.686;2024-02-16T23:34:10;2.20;99.90
18299;DHT22;9275;48.690;9.686;2024-02-16T23:39:15;2.20;99.90
18299;DHT22;9275;48.690;9.686;2024-02-16T23:44:19;2.20;99.90
18299;DHT22;9275;48.690;9.686;2024-02-16T23:49:26;2.20;99.90
18299;DHT22;9275;48.690;9.686;2024-02-16T23:54:31;2.10;99.90
18299;DHT22;9275;48.690;9.686;2024-02-16T23:59:36;2.10;99.90
